Red Rock, Arizona
Current Conditions -  °F | °C
As of 2:35 PM on Wednesday 26 Nov 2014 (Local Time) from KAVQ Reporting Station
Clear Clear  
Wind Chill: 71°   Ceiling: Unl
Heat Index: 71°   Visibility: 10mi
Dew Point: 12°   Wind: 6mph
Humidity: 11%   Direction: 320°NW
Pressure: 30.2"   Gusts: NA
Location:  32.58°N, 111.39°W
Report Text: KAVQ 262135Z AUTO 32005KT 10SM CLR 22/M11 A3020 RMK AO2 T02151110
Loading
Personal Weather Stations






























Interactive Weather Map New forecast layout! Learn more

10-Day Weather Forecast

Advertisements
Track Severe Weather on mobile